sensor_id;sensor_type;location;lat;lon;timestamp;pressure;altitude;pressure_sealevel;temperature;humidity
73600;BME280;61877;48.246;9.220;2022-07-10T00:01:15;94766.03;;;15.67;71.98
73600;BME280;61877;48.246;9.220;2022-07-10T00:03:40;94765.97;;;15.63;71.57
73600;BME280;61877;48.246;9.220;2022-07-10T00:06:05;94759.25;;;15.57;72.31
73600;BME280;61877;48.246;9.220;2022-07-10T00:08:31;94758.84;;;15.55;72.58
73600;BME280;61877;48.246;9.220;2022-07-10T00:10:56;94754.81;;;15.49;72.63
73600;BME280;61877;48.246;9.220;2022-07-10T00:13:23;94757.50;;;15.49;72.61
73600;BME280;61877;48.246;9.220;2022-07-10T00:15:48;94756.00;;;15.36;73.51
73600;BME280;61877;48.246;9.220;2022-07-10T00:18:14;94753.41;;;15.24;73.86
73600;BME280;61877;48.246;9.220;2022-07-10T00:20:39;94755.97;;;15.17;74.88
73600;BME280;61877;48.246;9.220;2022-07-10T00:23:04;94747.56;;;15.06;75.23
73600;BME280;61877;48.246;9.220;2022-07-10T00:25:30;94738.25;;;15.04;74.72
73600;BME280;61877;48.246;9.220;2022-07-10T00:27:55;94732.94;;;14.92;75.18
73600;BME280;61877;48.246;9.220;2022-07-10T00:30:22;94739.22;;;14.80;75.65
73600;BME280;61877;48.246;9.220;2022-07-10T00:32:47;94739.13;;;14.77;75.58
73600;BME280;61877;48.246;9.220;2022-07-10T00:35:13;94737.03;;;14.70;75.60
73600;BME280;61877;48.246;9.220;2022-07-10T00:37:38;94744.28;;;14.54;76.00
73600;BME280;61877;48.246;9.220;2022-07-10T00:40:05;94733.91;;;14.41;76.95
73600;BME280;61877;48.246;9.220;2022-07-10T00:42:30;94731.03;;;14.34;77.26
73600;BME280;61877;48.246;9.220;2022-07-10T00:44:56;94736.56;;;14.25;77.84
73600;BME280;61877;48.246;9.220;2022-07-10T00:47:23;94736.69;;;14.16;77.95
73600;BME280;61877;48.246;9.220;2022-07-10T00:49:48;94742.13;;;14.04;77.95
73600;BME280;61877;48.246;9.220;2022-07-10T00:52:15;94745.97;;;13.91;78.23
73600;BME280;61877;48.246;9.220;2022-07-10T00:54:43;94749.50;;;13.80;78.67
73600;BME280;61877;48.246;9.220;2022-07-10T00:57:08;94752.31;;;13.71;79.00
73600;BME280;61877;48.246;9.220;2022-07-10T00:59:34;94745.59;;;13.65;79.25
73600;BME280;61877;48.246;9.220;2022-07-10T01:02:00;94739.75;;;13.63;79.51
73600;BME280;61877;48.246;9.220;2022-07-10T01:04:27;94733.50;;;13.59;79.59
73600;BME280;61877;48.246;9.220;2022-07-10T01:06:52;94736.88;;;13.56;79.33
73600;BME280;61877;48.246;9.220;2022-07-10T01:09:18;94737.00;;;13.48;79.21
73600;BME280;61877;48.246;9.220;2022-07-10T01:11:43;94728.44;;;13.46;79.60
73600;BME280;61877;48.246;9.220;2022-07-10T01:14:09;94723.63;;;13.39;79.82
73600;BME280;61877;48.246;9.220;2022-07-10T01:16:35;94728.00;;;13.32;79.64
73600;BME280;61877;48.246;9.220;2022-07-10T01:19:01;94718.81;;;13.21;80.05
73600;BME280;61877;48.246;9.220;2022-07-10T01:21:28;94716.34;;;13.28;80.45
73600;BME280;61877;48.246;9.220;2022-07-10T01:23:54;94720.94;;;13.27;80.27
73600;BME280;61877;48.246;9.220;2022-07-10T01:26:20;94722.50;;;13.28;80.41
73600;BME280;61877;48.246;9.220;2022-07-10T01:28:48;94716.69;;;13.26;80.42
73600;BME280;61877;48.246;9.220;2022-07-10T01:31:13;94717.03;;;13.25;80.13
73600;BME280;61877;48.246;9.220;2022-07-10T01:33:39;94714.69;;;13.11;80.19
73600;BME280;61877;48.246;9.220;2022-07-10T01:36:04;94720.28;;;13.18;79.55
73600;BME280;61877;48.246;9.220;2022-07-10T01:38:31;94719.84;;;13.04;80.06
73600;BME280;61877;48.246;9.220;2022-07-10T01:40:57;94713.94;;;12.90;80.33
73600;BME280;61877;48.246;9.220;2022-07-10T01:43:22;94719.66;;;12.88;81.22
73600;BME280;61877;48.246;9.220;2022-07-10T01:45:47;94721.94;;;12.86;80.74
73600;BME280;61877;48.246;9.220;2022-07-10T01:48:13;94718.78;;;12.84;80.85
73600;BME280;61877;48.246;9.220;2022-07-10T01:50:38;94715.53;;;12.79;80.81
73600;BME280;61877;48.246;9.220;2022-07-10T01:53:04;94717.31;;;12.75;81.29
73600;BME280;61877;48.246;9.220;2022-07-10T01:55:30;94717.53;;;12.70;81.06
73600;BME280;61877;48.246;9.220;2022-07-10T01:57:56;94722.22;;;12.61;81.10
73600;BME280;61877;48.246;9.220;2022-07-10T02:00:21;94727.25;;;12.50;81.15
73600;BME280;61877;48.246;9.220;2022-07-10T02:02:47;94722.88;;;12.46;81.30
73600;BME280;61877;48.246;9.220;2022-07-10T02:05:12;94721.72;;;12.35;81.37
73600;BME280;61877;48.246;9.220;2022-07-10T02:07:37;94724.22;;;12.40;80.96
73600;BME280;61877;48.246;9.220;2022-07-10T02:10:04;94724.63;;;12.30;81.49
73600;BME280;61877;48.246;9.220;2022-07-10T02:12:31;94728.53;;;12.32;81.67
73600;BME280;61877;48.246;9.220;2022-07-10T02:14:56;94729.09;;;12.26;81.54
73600;BME280;61877;48.246;9.220;2022-07-10T02:17:22;94728.75;;;12.27;82.25
73600;BME280;61877;48.246;9.220;2022-07-10T02:19:47;94729.56;;;12.28;82.12
73600;BME280;61877;48.246;9.220;2022-07-10T02:22:13;94727.06;;;12.23;82.04
73600;BME280;61877;48.246;9.220;2022-07-10T02:24:38;94724.91;;;12.16;81.75
73600;BME280;61877;48.246;9.220;2022-07-10T02:27:04;94724.53;;;12.06;82.13
73600;BME280;61877;48.246;9.220;2022-07-10T02:29:31;94718.50;;;12.09;82.11
73600;BME280;61877;48.246;9.220;2022-07-10T02:31:56;94719.66;;;12.20;81.81
73600;BME280;61877;48.246;9.220;2022-07-10T02:34:21;94727.00;;;12.11;81.47
73600;BME280;61877;48.246;9.220;2022-07-10T02:36:47;94727.09;;;12.02;82.03
73600;BME280;61877;48.246;9.220;2022-07-10T02:39:12;94730.66;;;11.94;82.22
73600;BME280;61877;48.246;9.220;2022-07-10T02:41:37;94729.28;;;11.88;82.16
73600;BME280;61877;48.246;9.220;2022-07-10T02:44:03;94729.63;;;11.87;81.96
73600;BME280;61877;48.246;9.220;2022-07-10T02:46:30;94724.56;;;11.85;82.13
73600;BME280;61877;48.246;9.220;2022-07-10T02:48:55;94730.72;;;11.86;82.68
73600;BME280;61877;48.246;9.220;2022-07-10T02:51:21;94726.53;;;11.76;82.58
73600;BME280;61877;48.246;9.220;2022-07-10T02:53:46;94728.94;;;11.69;82.72
73600;BME280;61877;48.246;9.220;2022-07-10T02:56:11;94729.00;;;11.60;82.97
73600;BME280;61877;48.246;9.220;2022-07-10T02:58:37;94728.88;;;11.57;83.01
73600;BME280;61877;48.246;9.220;2022-07-10T03:01:03;94738.69;;;11.53;83.07
73600;BME280;61877;48.246;9.220;2022-07-10T03:03:30;94727.94;;;11.53;82.94
73600;BME280;61877;48.246;9.220;2022-07-10T03:05:55;94730.16;;;11.51;83.19
73600;BME280;61877;48.246;9.220;2022-07-10T03:08:20;94730.50;;;11.49;82.98
73600;BME280;61877;48.246;9.220;2022-07-10T03:10:46;94730.53;;;11.41;82.69
73600;BME280;61877;48.246;9.220;2022-07-10T03:13:11;94728.66;;;11.41;83.09
73600;BME280;61877;48.246;9.220;2022-07-10T03:15:37;94721.25;;;11.38;83.20
73600;BME280;61877;48.246;9.220;2022-07-10T03:18:02;94731.06;;;11.34;82.73
73600;BME280;61877;48.246;9.220;2022-07-10T03:20:29;94727.47;;;11.30;82.63
73600;BME280;61877;48.246;9.220;2022-07-10T03:22:54;94729.22;;;11.26;82.90
73600;BME280;61877;48.246;9.220;2022-07-10T03:25:20;94724.97;;;11.25;82.74
73600;BME280;61877;48.246;9.220;2022-07-10T03:27:45;94722.56;;;11.32;82.76
73600;BME280;61877;48.246;9.220;2022-07-10T03:30:12;94730.94;;;11.31;82.53
73600;BME280;61877;48.246;9.220;2022-07-10T03:32:37;94727.94;;;11.53;81.62
73600;BME280;61877;48.246;9.220;2022-07-10T03:35:03;94716.34;;;11.40;82.09
73600;BME280;61877;48.246;9.220;2022-07-10T03:37:30;94729.50;;;11.33;82.08
73600;BME280;61877;48.246;9.220;2022-07-10T03:39:56;94722.28;;;11.25;82.83
73600;BME280;61877;48.246;9.220;2022-07-10T03:42:21;94726.41;;;11.23;82.63
73600;BME280;61877;48.246;9.220;2022-07-10T03:44:47;94723.56;;;11.19;82.72
73600;BME280;61877;48.246;9.220;2022-07-10T03:47:12;94712.06;;;11.19;82.82
73600;BME280;61877;48.246;9.220;2022-07-10T03:49:37;94712.81;;;11.19;82.82
73600;BME280;61877;48.246;9.220;2022-07-10T03:52:04;94712.38;;;11.17;82.99
73600;BME280;61877;48.246;9.220;2022-07-10T03:54:31;94707.47;;;11.19;83.07
73600;BME280;61877;48.246;9.220;2022-07-10T03:56:56;94708.13;;;11.16;82.84
73600;BME280;61877;48.246;9.220;2022-07-10T03:59:22;94709.06;;;11.20;82.41
73600;BME280;61877;48.246;9.220;2022-07-10T04:01:47;94711.88;;;11.24;82.68
73600;BME280;61877;48.246;9.220;2022-07-10T04:04:13;94704.25;;;11.26;82.76
73600;BME280;61877;48.246;9.220;2022-07-10T04:06:38;94705.78;;;11.35;82.06
73600;BME280;61877;48.246;9.220;2022-07-10T04:09:03;94709.13;;;11.32;81.99
73600;BME280;61877;48.246;9.220;2022-07-10T04:11:30;94701.97;;;11.36;81.56
73600;BME280;61877;48.246;9.220;2022-07-10T04:13:56;94705.31;;;11.33;82.31
73600;BME280;61877;48.246;9.220;2022-07-10T04:16:21;94700.38;;;11.44;81.79
73600;BME280;61877;48.246;9.220;2022-07-10T04:18:47;94697.78;;;11.47;81.98
73600;BME280;61877;48.246;9.220;2022-07-10T04:21:12;94698.44;;;11.44;82.00
73600;BME280;61877;48.246;9.220;2022-07-10T04:23:38;94699.72;;;11.47;81.83
73600;BME280;61877;48.246;9.220;2022-07-10T04:26:03;94695.56;;;11.49;82.29
73600;BME280;61877;48.246;9.220;2022-07-10T04:28:30;94700.41;;;11.56;81.33
73600;BME280;61877;48.246;9.220;2022-07-10T04:30:55;94696.59;;;11.65;81.82
73600;BME280;61877;48.246;9.220;2022-07-10T04:33:21;94687.34;;;11.75;81.54
73600;BME280;61877;48.246;9.220;2022-07-10T04:35:46;94697.16;;;11.92;81.11
73600;BME280;61877;48.246;9.220;2022-07-10T04:38:12;94694.75;;;12.11;80.44
73600;BME280;61877;48.246;9.220;2022-07-10T04:40:37;94699.16;;;12.27;80.34
73600;BME280;61877;48.246;9.220;2022-07-10T04:43:02;94695.38;;;12.40;80.15
73600;BME280;61877;48.246;9.220;2022-07-10T04:45:29;94696.28;;;12.44;80.12
73600;BME280;61877;48.246;9.220;2022-07-10T04:47:55;94699.56;;;12.62;79.48
73600;BME280;61877;48.246;9.220;2022-07-10T04:50:20;94699.59;;;12.74;79.61
73600;BME280;61877;48.246;9.220;2022-07-10T04:52:45;94692.88;;;12.80;80.00
73600;BME280;61877;48.246;9.220;2022-07-10T04:55:11;94703.75;;;12.95;79.81
73600;BME280;61877;48.246;9.220;2022-07-10T04:57:36;94701.16;;;12.99;79.28
73600;BME280;61877;48.246;9.220;2022-07-10T05:00:02;94706.72;;;13.15;79.64
73600;BME280;61877;48.246;9.220;2022-07-10T05:02:29;94704.09;;;13.30;79.21
73600;BME280;61877;48.246;9.220;2022-07-10T05:04:55;94713.97;;;13.38;79.32
73600;BME280;61877;48.246;9.220;2022-07-10T05:07:20;94706.44;;;13.44;79.24
73600;BME280;61877;48.246;9.220;2022-07-10T05:09:45;94714.50;;;13.56;78.83
73600;BME280;61877;48.246;9.220;2022-07-10T05:12:11;94714.78;;;13.78;77.88
73600;BME280;61877;48.246;9.220;2022-07-10T05:14:36;94707.22;;;13.96;77.38
73600;BME280;61877;48.246;9.220;2022-07-10T05:17:02;94713.88;;;14.14;77.15
73600;BME280;61877;48.246;9.220;2022-07-10T05:19:29;94705.72;;;14.54;75.65
73600;BME280;61877;48.246;9.220;2022-07-10T05:21:54;94705.13;;;14.76;76.65
73600;BME280;61877;48.246;9.220;2022-07-10T05:24:20;94702.94;;;14.81;75.90
73600;BME280;61877;48.246;9.220;2022-07-10T05:26:45;94706.00;;;14.95;75.20
73600;BME280;61877;48.246;9.220;2022-07-10T05:29:10;94702.47;;;15.26;75.43
73600;BME280;61877;48.246;9.220;2022-07-10T05:31:36;94706.00;;;15.42;74.89
73600;BME280;61877;48.246;9.220;2022-07-10T05:34:01;94699.78;;;15.76;74.02
73600;BME280;61877;48.246;9.220;2022-07-10T05:36:28;94703.22;;;16.11;72.11
73600;BME280;61877;48.246;9.220;2022-07-10T05:38:53;94709.19;;;16.39;71.37
73600;BME280;61877;48.246;9.220;2022-07-10T05:41:19;94712.38;;;16.87;68.93
73600;BME280;61877;48.246;9.220;2022-07-10T05:43:44;94719.91;;;16.97;68.84
73600;BME280;61877;48.246;9.220;2022-07-10T05:46:10;94716.06;;;16.98;67.87
73600;BME280;61877;48.246;9.220;2022-07-10T05:48:35;94724.44;;;17.12;66.33
73600;BME280;61877;48.246;9.220;2022-07-10T05:51:01;94724.63;;;17.22;66.93
73600;BME280;61877;48.246;9.220;2022-07-10T05:53:27;94721.72;;;17.12;66.13
73600;BME280;61877;48.246;9.220;2022-07-10T05:55:53;94730.03;;;17.00;66.40
73600;BME280;61877;48.246;9.220;2022-07-10T05:58:18;94733.78;;;17.14;65.93
73600;BME280;61877;48.246;9.220;2022-07-10T06:00:44;94732.75;;;17.00;66.24
73600;BME280;61877;48.246;9.220;2022-07-10T06:03:10;94735.38;;;16.73;66.16
73600;BME280;61877;48.246;9.220;2022-07-10T06:05:35;94734.91;;;16.68;66.87
73600;BME280;61877;48.246;9.220;2022-07-10T06:08:01;94738.34;;;16.46;67.96
73600;BME280;61877;48.246;9.220;2022-07-10T06:10:27;94733.72;;;16.46;67.28
73600;BME280;61877;48.246;9.220;2022-07-10T06:12:53;94735.44;;;16.54;67.80
73600;BME280;61877;48.246;9.220;2022-07-10T06:15:18;94740.50;;;16.78;66.62
73600;BME280;61877;48.246;9.220;2022-07-10T06:17:44;94743.34;;;17.08;66.75
73600;BME280;61877;48.246;9.220;2022-07-10T06:20:10;94739.91;;;17.34;65.08
73600;BME280;61877;48.246;9.220;2022-07-10T06:22:35;94749.66;;;17.38;63.88
73600;BME280;61877;48.246;9.220;2022-07-10T06:25:03;94754.97;;;17.31;63.44
73600;BME280;61877;48.246;9.220;2022-07-10T06:27:30;94749.63;;;17.12;64.00
73600;BME280;61877;48.246;9.220;2022-07-10T06:29:56;94746.28;;;17.00;63.74
73600;BME280;61877;48.246;9.220;2022-07-10T06:32:22;94743.59;;;17.00;64.01
73600;BME280;61877;48.246;9.220;2022-07-10T06:34:48;94744.00;;;17.02;63.82
73600;BME280;61877;48.246;9.220;2022-07-10T06:37:13;94739.31;;;17.21;62.74
73600;BME280;61877;48.246;9.220;2022-07-10T06:39:39;94739.97;;;17.15;63.04
73600;BME280;61877;48.246;9.220;2022-07-10T06:42:05;94743.59;;;17.22;63.34
73600;BME280;61877;48.246;9.220;2022-07-10T06:44:33;94747.19;;;17.30;63.16
73600;BME280;61877;48.246;9.220;2022-07-10T06:46:58;94743.50;;;17.64;61.96
73600;BME280;61877;48.246;9.220;2022-07-10T06:49:24;94741.66;;;17.71;61.86
73600;BME280;61877;48.246;9.220;2022-07-10T06:51:50;94741.69;;;18.01;60.79
73600;BME280;61877;48.246;9.220;2022-07-10T06:54:16;94747.97;;;18.05;61.44
73600;BME280;61877;48.246;9.220;2022-07-10T06:56:41;94745.84;;;18.21;58.88
73600;BME280;61877;48.246;9.220;2022-07-10T06:59:07;94745.41;;;18.16;60.28
73600;BME280;61877;48.246;9.220;2022-07-10T07:01:33;94753.66;;;17.96;60.90
73600;BME280;61877;48.246;9.220;2022-07-10T07:03:59;94752.69;;;17.82;60.35
73600;BME280;61877;48.246;9.220;2022-07-10T07:06:24;94751.84;;;17.78;60.37
73600;BME280;61877;48.246;9.220;2022-07-10T07:08:49;94751.94;;;17.85;60.98
73600;BME280;61877;48.246;9.220;2022-07-10T07:11:15;94753.81;;;17.81;61.42
73600;BME280;61877;48.246;9.220;2022-07-10T07:13:40;94754.72;;;17.40;60.78
73600;BME280;61877;48.246;9.220;2022-07-10T07:16:06;94756.66;;;17.62;59.99
73600;BME280;61877;48.246;9.220;2022-07-10T07:18:33;94756.13;;;18.05;60.09
73600;BME280;61877;48.246;9.220;2022-07-10T07:20:58;94757.53;;;18.25;58.61
73600;BME280;61877;48.246;9.220;2022-07-10T07:23:24;94765.78;;;18.32;57.87
73600;BME280;61877;48.246;9.220;2022-07-10T07:25:49;94764.69;;;18.37;56.13
73600;BME280;61877;48.246;9.220;2022-07-10T07:28:15;94768.78;;;17.97;57.63
73600;BME280;61877;48.246;9.220;2022-07-10T07:30:41;94764.69;;;17.81;58.93
73600;BME280;61877;48.246;9.220;2022-07-10T07:33:06;94775.97;;;17.57;59.79
73600;BME280;61877;48.246;9.220;2022-07-10T07:35:33;94765.63;;;17.43;59.93
73600;BME280;61877;48.246;9.220;2022-07-10T07:37:58;94770.09;;;17.55;60.40
73600;BME280;61877;48.246;9.220;2022-07-10T07:40:24;94765.59;;;17.62;59.60
73600;BME280;61877;48.246;9.220;2022-07-10T07:42:52;94766.97;;;18.05;57.69
73600;BME280;61877;48.246;9.220;2022-07-10T07:45:19;94770.34;;;18.54;56.51
73600;BME280;61877;48.246;9.220;2022-07-10T07:47:46;94766.84;;;18.90;54.15
73600;BME280;61877;48.246;9.220;2022-07-10T07:50:13;94763.31;;;19.23;55.30
73600;BME280;61877;48.246;9.220;2022-07-10T07:52:40;94762.06;;;19.17;53.26
73600;BME280;61877;48.246;9.220;2022-07-10T07:55:06;94767.34;;;18.63;55.49
73600;BME280;61877;48.246;9.220;2022-07-10T07:57:32;94766.88;;;17.98;55.41
73600;BME280;61877;48.246;9.220;2022-07-10T07:59:57;94767.03;;;17.82;57.11
73600;BME280;61877;48.246;9.220;2022-07-10T08:02:23;94762.97;;;17.95;58.39
73600;BME280;61877;48.246;9.220;2022-07-10T08:04:48;94766.06;;;18.53;56.77
73600;BME280;61877;48.246;9.220;2022-07-10T08:07:13;94759.13;;;19.33;54.42
73600;BME280;61877;48.246;9.220;2022-07-10T08:09:40;94753.00;;;19.43;54.22
73600;BME280;61877;48.246;9.220;2022-07-10T08:12:06;94757.81;;;19.16;55.07
73600;BME280;61877;48.246;9.220;2022-07-10T08:14:32;94758.19;;;19.14;54.35
73600;BME280;61877;48.246;9.220;2022-07-10T08:16:57;94757.31;;;19.47;53.09
73600;BME280;61877;48.246;9.220;2022-07-10T08:19:23;94756.34;;;19.73;53.32
73600;BME280;61877;48.246;9.220;2022-07-10T08:21:48;94741.53;;;20.24;51.30
73600;BME280;61877;48.246;9.220;2022-07-10T08:24:14;94752.22;;;20.75;51.37
73600;BME280;61877;48.246;9.220;2022-07-10T08:26:41;94742.38;;;20.39;51.25
73600;BME280;61877;48.246;9.220;2022-07-10T08:29:06;94741.81;;;20.12;51.44
73600;BME280;61877;48.246;9.220;2022-07-10T08:31:32;94753.16;;;20.21;53.74
73600;BME280;61877;48.246;9.220;2022-07-10T08:33:57;94744.72;;;20.44;50.96
73600;BME280;61877;48.246;9.220;2022-07-10T08:36:22;94738.41;;;20.26;50.33
73600;BME280;61877;48.246;9.220;2022-07-10T08:38:48;94749.09;;;20.63;49.92
73600;BME280;61877;48.246;9.220;2022-07-10T08:41:14;94735.50;;;19.98;50.85
73600;BME280;61877;48.246;9.220;2022-07-10T08:43:41;94743.88;;;20.29;48.24
73600;BME280;61877;48.246;9.220;2022-07-10T08:46:06;94736.16;;;19.77;48.41
73600;BME280;61877;48.246;9.220;2022-07-10T08:48:32;94743.94;;;19.79;51.59
73600;BME280;61877;48.246;9.220;2022-07-10T08:51:01;94738.31;;;19.10;52.37
73600;BME280;61877;48.246;9.220;2022-07-10T08:53:30;94733.28;;;19.12;52.61
73600;BME280;61877;48.246;9.220;2022-07-10T08:55:57;94741.28;;;19.89;51.22
73600;BME280;61877;48.246;9.220;2022-07-10T08:58:23;94736.75;;;20.11;50.71
73600;BME280;61877;48.246;9.220;2022-07-10T09:00:50;94737.59;;;20.22;50.94
73600;BME280;61877;48.246;9.220;2022-07-10T09:03:15;94738.22;;;20.84;48.74
73600;BME280;61877;48.246;9.220;2022-07-10T09:05:41;94744.19;;;21.59;48.79
73600;BME280;61877;48.246;9.220;2022-07-10T09:08:21;94738.69;;;21.21;45.38
73600;BME280;61877;48.246;9.220;2022-07-10T09:10:46;94740.16;;;20.80;47.12
73600;BME280;61877;48.246;9.220;2022-07-10T09:13:12;94749.25;;;21.86;46.66
73600;BME280;61877;48.246;9.220;2022-07-10T09:15:37;94748.31;;;20.66;45.52
73600;BME280;61877;48.246;9.220;2022-07-10T09:18:05;94747.34;;;20.23;47.14
73600;BME280;61877;48.246;9.220;2022-07-10T09:20:33;94751.91;;;20.12;47.10
73600;BME280;61877;48.246;9.220;2022-07-10T09:23:08;94745.16;;;20.60;46.05
73600;BME280;61877;48.246;9.220;2022-07-10T09:25:34;94746.50;;;21.15;44.28
73600;BME280;61877;48.246;9.220;2022-07-10T09:28:00;94746.06;;;20.99;45.22
73600;BME280;61877;48.246;9.220;2022-07-10T09:30:33;94751.06;;;20.83;46.47
73600;BME280;61877;48.246;9.220;2022-07-10T09:33:15;94753.56;;;21.51;44.86
73600;BME280;61877;48.246;9.220;2022-07-10T09:35:57;94764.47;;;22.01;44.32
73600;BME280;61877;48.246;9.220;2022-07-10T09:38:23;94754.22;;;20.92;45.39
73600;BME280;61877;48.246;9.220;2022-07-10T09:40:48;94759.59;;;20.64;45.98
73600;BME280;61877;48.246;9.220;2022-07-10T09:43:14;94757.03;;;21.20;44.87
73600;BME280;61877;48.246;9.220;2022-07-10T09:45:39;94749.25;;;21.33;44.50
73600;BME280;61877;48.246;9.220;2022-07-10T09:48:05;94754.75;;;21.79;41.28
73600;BME280;61877;48.246;9.220;2022-07-10T09:50:32;94755.47;;;21.75;41.34
73600;BME280;61877;48.246;9.220;2022-07-10T09:53:00;94751.03;;;22.66;40.40
73600;BME280;61877;48.246;9.220;2022-07-10T09:55:27;94742.28;;;22.95;35.99
73600;BME280;61877;48.246;9.220;2022-07-10T09:57:54;94743.78;;;21.96;39.85
73600;BME280;61877;48.246;9.220;2022-07-10T10:00:22;94746.91;;;21.14;42.17
73600;BME280;61877;48.246;9.220;2022-07-10T10:02:49;94745.44;;;20.30;44.08
73600;BME280;61877;48.246;9.220;2022-07-10T10:05:15;94745.47;;;20.34;44.73
73600;BME280;61877;48.246;9.220;2022-07-10T10:07:43;94746.53;;;21.71;43.67
73600;BME280;61877;48.246;9.220;2022-07-10T10:10:10;94745.25;;;22.43;39.95
73600;BME280;61877;48.246;9.220;2022-07-10T10:12:39;94748.69;;;22.68;41.79
73600;BME280;61877;48.246;9.220;2022-07-10T10:15:10;94751.84;;;22.45;41.43
73600;BME280;61877;48.246;9.220;2022-07-10T10:17:36;94750.03;;;21.30;41.99
73600;BME280;61877;48.246;9.220;2022-07-10T10:20:02;94749.53;;;20.86;43.67
73600;BME280;61877;48.246;9.220;2022-07-10T10:22:29;94753.16;;;21.99;42.85
73600;BME280;61877;48.246;9.220;2022-07-10T10:24:57;94742.09;;;22.48;39.62
73600;BME280;61877;48.246;9.220;2022-07-10T10:27:23;94742.56;;;23.12;39.88
73600;BME280;61877;48.246;9.220;2022-07-10T10:29:49;94745.47;;;23.96;35.24
73600;BME280;61877;48.246;9.220;2022-07-10T10:32:16;94738.75;;;24.42;36.72
73600;BME280;61877;48.246;9.220;2022-07-10T10:34:42;94741.31;;;23.30;37.87
73600;BME280;61877;48.246;9.220;2022-07-10T10:37:34;94741.03;;;23.65;36.81
73600;BME280;61877;48.246;9.220;2022-07-10T10:40:01;94733.75;;;23.92;35.74
73600;BME280;61877;48.246;9.220;2022-07-10T10:42:34;94727.22;;;25.17;35.10
73600;BME280;61877;48.246;9.220;2022-07-10T10:45:25;94736.84;;;25.29;35.20
73600;BME280;61877;48.246;9.220;2022-07-10T10:47:59;94741.03;;;24.09;36.31
73600;BME280;61877;48.246;9.220;2022-07-10T10:50:40;94741.50;;;23.57;37.65
73600;BME280;61877;48.246;9.220;2022-07-10T10:53:12;94740.97;;;24.16;37.47
73600;BME280;61877;48.246;9.220;2022-07-10T10:55:39;94735.28;;;24.71;37.89
73600;BME280;61877;48.246;9.220;2022-07-10T10:58:14;94730.44;;;24.15;35.26
73600;BME280;61877;48.246;9.220;2022-07-10T11:00:40;94730.34;;;23.30;38.33
73600;BME280;61877;48.246;9.220;2022-07-10T11:03:16;94729.59;;;23.30;37.45
73600;BME280;61877;48.246;9.220;2022-07-10T11:05:43;94737.50;;;23.10;37.44
73600;BME280;61877;48.246;9.220;2022-07-10T11:08:08;94734.03;;;24.08;35.43
73600;BME280;61877;48.246;9.220;2022-07-10T11:10:35;94738.44;;;23.99;35.51
73600;BME280;61877;48.246;9.220;2022-07-10T11:13:04;94729.19;;;23.79;39.32
73600;BME280;61877;48.246;9.220;2022-07-10T11:15:30;94725.13;;;24.68;35.95
73600;BME280;61877;48.246;9.220;2022-07-10T11:17:56;94726.69;;;24.66;35.11
73600;BME280;61877;48.246;9.220;2022-07-10T11:20:22;94714.00;;;24.11;35.03
73600;BME280;61877;48.246;9.220;2022-07-10T11:22:55;94724.06;;;22.68;39.20
73600;BME280;61877;48.246;9.220;2022-07-10T11:25:33;94722.63;;;23.15;37.04
73600;BME280;61877;48.246;9.220;2022-07-10T11:28:06;94727.19;;;22.70;37.91
73600;BME280;61877;48.246;9.220;2022-07-10T11:30:43;94724.84;;;23.34;37.43
73600;BME280;61877;48.246;9.220;2022-07-10T11:33:09;94721.22;;;23.51;37.02
73600;BME280;61877;48.246;9.220;2022-07-10T11:35:34;94711.75;;;23.04;37.43
73600;BME280;61877;48.246;9.220;2022-07-10T11:38:01;94713.81;;;23.48;37.59
73600;BME280;61877;48.246;9.220;2022-07-10T11:40:26;94708.91;;;24.13;36.04
73600;BME280;61877;48.246;9.220;2022-07-10T11:42:53;94709.44;;;23.94;37.34
73600;BME280;61877;48.246;9.220;2022-07-10T11:45:28;94712.63;;;24.64;35.77
73600;BME280;61877;48.246;9.220;2022-07-10T11:47:54;94702.50;;;23.42;36.71
73600;BME280;61877;48.246;9.220;2022-07-10T11:50:20;94709.13;;;23.89;35.20
73600;BME280;61877;48.246;9.220;2022-07-10T11:52:46;94701.50;;;24.78;35.35
73600;BME280;61877;48.246;9.220;2022-07-10T11:55:15;94706.47;;;25.43;34.58
73600;BME280;61877;48.246;9.220;2022-07-10T11:57:40;94709.22;;;24.53;33.76
73600;BME280;61877;48.246;9.220;2022-07-10T12:00:07;94700.75;;;23.66;35.52
73600;BME280;61877;48.246;9.220;2022-07-10T12:02:46;94704.44;;;24.94;35.76
73600;BME280;61877;48.246;9.220;2022-07-10T12:05:30;94711.72;;;25.80;32.60
73600;BME280;61877;48.246;9.220;2022-07-10T12:07:56;94709.38;;;25.29;36.31
73600;BME280;61877;48.246;9.220;2022-07-10T12:10:25;94699.00;;;25.43;33.37
73600;BME280;61877;48.246;9.220;2022-07-10T12:12:51;94696.94;;;24.64;32.32
73600;BME280;61877;48.246;9.220;2022-07-10T12:15:30;94699.53;;;24.45;34.46
73600;BME280;61877;48.246;9.220;2022-07-10T12:17:57;94694.56;;;24.66;34.25
73600;BME280;61877;48.246;9.220;2022-07-10T12:20:23;94705.94;;;24.68;34.80
73600;BME280;61877;48.246;9.220;2022-07-10T12:22:48;94700.84;;;24.67;36.75
73600;BME280;61877;48.246;9.220;2022-07-10T12:25:14;94697.22;;;25.03;33.36
73600;BME280;61877;48.246;9.220;2022-07-10T12:27:39;94700.41;;;23.57;33.70
73600;BME280;61877;48.246;9.220;2022-07-10T12:30:06;94698.25;;;23.38;35.45
73600;BME280;61877;48.246;9.220;2022-07-10T12:32:31;94708.50;;;23.74;35.07
73600;BME280;61877;48.246;9.220;2022-07-10T12:34:59;94702.59;;;23.76;35.36
73600;BME280;61877;48.246;9.220;2022-07-10T12:37:25;94702.00;;;23.54;35.67
73600;BME280;61877;48.246;9.220;2022-07-10T12:39:51;94691.41;;;24.00;35.68
73600;BME280;61877;48.246;9.220;2022-07-10T12:42:24;94702.97;;;23.30;36.42
73600;BME280;61877;48.246;9.220;2022-07-10T12:44:50;94699.50;;;23.70;34.72
73600;BME280;61877;48.246;9.220;2022-07-10T12:47:17;94700.31;;;24.11;36.05
73600;BME280;61877;48.246;9.220;2022-07-10T12:49:50;94711.69;;;23.11;35.11
73600;BME280;61877;48.246;9.220;2022-07-10T12:52:21;94702.94;;;23.78;38.23
73600;BME280;61877;48.246;9.220;2022-07-10T12:54:47;94697.44;;;23.41;36.85
73600;BME280;61877;48.246;9.220;2022-07-10T12:57:12;94688.03;;;24.23;34.17